Time;durP1;ratioP1;P1;durP2;ratioP2;P2;SDS_P1;SDS_P2;PMS_P1;PMS_P2;Temp;Humidity;BMP_temperature;BMP_pressure;BME280_temperature;BME280_humidity;BME280_pressure;Samples;Min_cycle;Max_cycle;Signal;HPM_P1;HPM_P2
2022/05/27 00:02:15;;;;;;;2.00;1.90;;;16.50;99.90;;;;;;6218305;23;20377;-92
2022/05/27 00:04:41;;;;;;;1.90;1.90;;;16.20;99.90;;;;;;6217848;23;20155;-91
2022/05/27 00:07:07;;;;;;;3.20;1.90;;;16.30;99.90;;;;;;6218458;23;20169;-91
2022/05/27 00:09:32;;;;;;;2.27;2.07;;;16.70;99.90;;;;;;6244744;23;20373;-91
2022/05/27 00:11:58;;;;;;;2.43;2.30;;;16.20;99.90;;;;;;6245649;23;20215;-92
2022/05/27 00:14:24;;;;;;;2.30;2.20;;;16.40;99.90;;;;;;6247255;23;20150;-91
2022/05/27 00:16:49;;;;;;;1.83;1.73;;;16.30;99.90;;;;;;6244370;23;20162;-90
2022/05/27 00:19:16;;;;;;;1.57;1.47;;;16.40;99.90;;;;;;6246264;23;20150;-92
2022/05/27 00:21:45;;;;;;;1.67;1.67;;;16.50;99.90;;;;;;6216786;23;20238;-92
2022/05/27 00:24:10;;;;;;;1.90;1.80;;;16.50;99.90;;;;;;6219541;23;20409;-92
2022/05/27 00:26:36;;;;;;;1.47;1.40;;;16.40;99.90;;;;;;6230102;23;20389;-92
2022/05/27 00:29:02;;;;;;;1.93;1.93;;;16.40;99.90;;;;;;6254139;22;20182;-92
2022/05/27 00:31:29;;;;;;;2.00;1.90;;;16.70;99.90;;;;;;6244768;23;20162;-93
2022/05/27 00:33:55;;;;;;;1.80;1.80;;;17.30;99.90;;;;;;6219506;23;20236;-91
2022/05/27 00:36:20;;;;;;;2.03;1.90;;;16.40;99.90;;;;;;6219683;23;20389;-92
2022/05/27 00:38:46;;;;;;;1.83;1.83;;;16.40;99.90;;;;;;6246305;23;20158;-92
2022/05/27 00:41:12;;;;;;;2.03;1.93;;;16.80;99.90;;;;;;6244502;23;20150;-92
2022/05/27 00:43:40;;;;;;;2.90;2.80;;;16.40;99.90;;;;;;6220497;23;20155;-92
2022/05/27 00:46:21;;;;;;;2.60;2.50;;;16.20;99.90;;;;;;6218539;23;20385;-91
2022/05/27 00:48:51;;;;;;;3.10;2.90;;;16.40;99.90;;;;;;6246129;23;21033;-92
2022/05/27 00:51:24;;;;;;;2.10;2.00;;;16.40;99.90;;;;;;6243014;23;20417;-92
2022/05/27 00:54:05;;;;;;;4.00;2.73;;;16.10;99.90;;;;;;6245435;23;20415;-91
2022/05/27 00:56:34;;;;;;;2.40;2.30;;;16.10;99.90;;;;;;6217764;23;20405;-92
2022/05/27 00:59:05;;;;;;;6.07;2.93;;;16.60;99.90;;;;;;6244398;23;20396;-92
2022/05/27 01:01:30;;;;;;;2.47;2.27;;;17.10;99.90;;;;;;6244158;23;20389;-92
2022/05/27 01:03:57;;;;;;;2.63;2.63;;;15.70;99.90;;;;;;6219791;23;20453;-91
2022/05/27 01:06:23;;;;;;;2.93;2.73;;;15.50;99.90;;;;;;6244777;23;20413;-91
2022/05/27 01:08:50;;;;;;;2.23;2.23;;;16.60;99.90;;;;;;6250037;23;20384;-92
2022/05/27 01:11:39;;;;;;;2.67;2.40;;;15.80;99.90;;;;;;6220666;23;20820;-84
2022/05/27 01:14:53;;;;;;;2.73;2.60;;;16.10;99.90;;;;;;6233198;23;20393;-93
2022/05/27 01:17:18;;;;;;;2.50;2.40;;;16.00;99.90;;;;;;6155533;23;20393;-93
2022/05/27 01:22:52;;;;;;;2.57;2.47;;;15.90;99.90;;;;;;6248226;23;20291;-93
2022/05/27 01:25:35;;;;;;;3.50;2.80;;;16.00;99.90;;;;;;6217604;23;20415;-92
2022/05/27 01:28:32;;;;;;;3.20;3.07;;;15.80;99.90;;;;;;6220510;23;20527;-92
2022/05/27 01:31:25;;;;;;;2.73;2.63;;;15.90;99.90;;;;;;6223660;23;20393;-93
2022/05/27 01:33:53;;;;;;;2.97;2.73;;;15.90;99.90;;;;;;6227084;23;20397;-92
2022/05/27 01:36:49;;;;;;;2.80;2.43;;;15.90;99.90;;;;;;6224258;23;20814;-90
2022/05/27 01:39:22;;;;;;;2.77;2.67;;;16.00;99.90;;;;;;6249583;23;20389;-93
2022/05/27 01:42:15;;;;;;;4.70;2.77;;;15.80;99.90;;;;;;6253791;23;20369;-91
2022/05/27 01:44:58;;;;;;;2.80;2.70;;;16.10;99.90;;;;;;6245630;23;20427;-92
2022/05/27 01:47:35;;;;;;;2.40;2.30;;;16.10;99.90;;;;;;6245719;23;20378;-92
2022/05/27 01:50:34;;;;;;;3.37;3.27;;;16.40;99.90;;;;;;6245143;23;20477;-92
2022/05/27 01:53:04;;;;;;;3.30;3.13;;;16.00;99.90;;;;;;6207186;23;20444;-93
2022/05/27 01:55:55;;;;;;;2.70;2.60;;;15.80;99.90;;;;;;6245306;23;20377;-91
2022/05/27 01:58:55;;;;;;;2.53;2.53;;;16.30;99.90;;;;;;6202242;23;20390;-91
2022/05/27 02:01:31;;;;;;;3.60;3.17;;;14.50;99.90;;;;;;6171828;23;20498;-92
2022/05/27 02:04:10;;;;;;;5.03;4.10;;;15.60;99.90;;;;;;6245195;23;20709;-92
2022/05/27 02:06:59;;;;;;;2.80;2.70;;;15.70;99.90;;;;;;6244879;23;20884;-94
2022/05/27 02:09:46;;;;;;;2.93;2.73;;;15.70;99.90;;;;;;6221053;23;20384;-92
2022/05/27 02:12:35;;;;;;;6.07;3.17;;;15.60;99.90;;;;;;6246262;23;20437;-92
2022/05/27 02:15:10;;;;;;;2.50;2.30;;;15.70;99.90;;;;;;6221804;23;20386;-92
2022/05/27 02:18:01;;;;;;;3.57;3.33;;;15.70;99.90;;;;;;6220558;23;20384;-94
2022/05/27 02:20:41;;;;;;;2.60;2.60;;;15.70;99.90;;;;;;6246363;23;20389;-92
2022/05/27 02:23:34;;;;;;;3.10;2.90;;;15.50;99.90;;;;;;6254252;23;21161;-93
2022/05/27 02:26:56;;;;;;;3.27;3.00;;;15.20;99.90;;;;;;6247628;23;20374;-91
2022/05/27 02:30:29;;;;;;;4.70;3.00;;;15.40;99.90;;;;;;6250661;22;20413;-91
2022/05/27 02:37:26;;;;;;;3.57;3.23;;;15.10;99.90;;;;;;6253512;23;20389;-92
2022/05/27 02:39:53;;;;;;;11.90;3.20;;;14.90;99.90;;;;;;6220558;23;20386;-91
2022/05/27 02:42:47;;;;;;;4.00;3.60;;;14.90;99.90;;;;;;6250434;23;20389;-92
2022/05/27 02:45:38;;;;;;;3.90;3.70;;;14.90;99.90;;;;;;6225171;23;20460;-92
2022/05/27 02:48:52;;;;;;;4.57;4.10;;;15.40;99.90;;;;;;6233418;23;20432;-92
2022/05/27 02:52:04;;;;;;;3.60;3.40;;;15.10;99.90;;;;;;6248300;23;20413;-92
2022/05/27 02:55:35;;;;;;;3.80;3.50;;;14.70;99.90;;;;;;6250505;23;20389;-91
2022/05/27 02:59:01;;;;;;;4.60;4.30;;;14.60;99.90;;;;;;6245384;23;20389;-92
2022/05/27 03:02:29;;;;;;;5.97;5.30;;;14.50;99.90;;;;;;6248575;23;20393;-92
2022/05/27 03:05:49;;;;;;;5.70;5.30;;;14.40;99.90;;;;;;6245551;23;20416;-92
2022/05/27 03:09:26;;;;;;;7.73;5.60;;;14.20;99.90;;;;;;6241369;23;20404;-91
2022/05/27 03:12:21;;;;;;;5.40;5.07;;;14.70;99.90;;;;;;6243511;23;20429;-91
2022/05/27 03:15:14;;;;;;;7.10;5.90;;;14.60;99.90;;;;;;6221069;23;20720;-91
2022/05/27 03:18:01;;;;;;;5.87;5.57;;;14.10;99.90;;;;;;6226127;23;20382;-90
2022/05/27 03:20:35;;;;;;;7.77;6.10;;;14.60;99.90;;;;;;6231068;23;20416;-91
2022/05/27 03:23:07;;;;;;;8.63;5.13;;;13.80;99.90;;;;;;6256952;23;20373;-91
2022/05/27 03:25:46;;;;;;;6.03;5.50;;;14.00;99.90;;;;;;6215573;23;20928;-91
2022/05/27 03:28:51;;;;;;;6.30;5.90;;;14.10;99.90;;;;;;6219030;23;20463;-91
2022/05/27 03:31:30;;;;;;;7.60;6.57;;;13.80;99.90;;;;;;6242570;23;20397;-90
2022/05/27 03:33:55;;;;;;;5.93;5.63;;;14.40;99.90;;;;;;6246433;23;20424;-90
2022/05/27 03:36:29;;;;;;;7.63;7.07;;;13.80;99.90;;;;;;6216681;23;20401;-90
2022/05/27 03:39:28;;;;;;;7.20;5.80;;;13.90;99.90;;;;;;6243905;23;20147;-90
2022/05/27 03:42:16;;;;;;;6.77;6.27;;;13.90;99.90;;;;;;6242871;23;20390;-90
2022/05/27 03:45:33;;;;;;;7.03;6.40;;;13.90;99.90;;;;;;6243787;23;20388;-91
2022/05/27 03:48:59;;;;;;;6.43;5.83;;;13.90;99.90;;;;;;6240242;23;20421;-90
2022/05/27 03:52:06;;;;;;;5.40;5.10;;;13.70;99.90;;;;;;6241207;23;20516;-89
2022/05/27 03:54:32;;;;;;;4.93;4.60;;;13.80;99.90;;;;;;6217794;23;20377;-92
2022/05/27 03:56:58;;;;;;;4.73;4.63;;;15.40;99.90;;;;;;6216451;23;20401;-91
2022/05/27 04:00:03;;;;;;;5.07;4.87;;;13.50;99.90;;;;;;6217706;23;20831;-92
2022/05/27 04:03:29;;;;;;;5.70;5.40;;;13.90;99.90;;;;;;6244575;23;20439;-90
2022/05/27 04:06:17;;;;;;;4.33;4.23;;;13.90;99.90;;;;;;6251730;23;20435;-92
2022/05/27 04:08:43;;;;;;;6.07;4.67;;;14.20;99.90;;;;;;6264564;23;20407;-93
2022/05/27 04:11:08;;;;;;;5.17;4.67;;;13.80;99.90;;;;;;6238203;23;20393;-91
2022/05/27 04:13:34;;;;;;;4.17;4.07;;;13.80;99.90;;;;;;6222757;23;20499;-92
2022/05/27 04:16:39;;;;;;;4.60;4.50;;;13.90;99.90;;;;;;6219373;23;20162;-92
2022/05/27 04:20:05;;;;;;;6.07;4.80;;;13.90;99.90;;;;;;6246383;23;20165;-91
2022/05/27 04:23:33;;;;;;;4.10;3.70;;;13.80;99.90;;;;;;6245166;23;20393;-92
2022/05/27 04:26:59;;;;;;;5.27;4.77;;;14.00;99.90;;;;;;6243970;23;20483;-92
2022/05/27 04:29:48;;;;;;;3.40;3.40;;;14.10;99.90;;;;;;6246064;22;20417;-92
2022/05/27 04:32:14;;;;;;;4.20;4.00;;;14.10;99.90;;;;;;6244102;23;20941;-91
2022/05/27 04:34:40;;;;;;;4.47;4.27;;;13.90;99.90;;;;;;6245179;23;20374;-92
2022/05/27 04:37:07;;;;;;;4.00;3.93;;;13.80;99.90;;;;;;6218510;23;20840;-93
2022/05/27 04:39:33;;;;;;;3.93;3.50;;;14.00;99.90;;;;;;6219678;23;20385;-92
2022/05/27 04:41:58;;;;;;;4.80;4.67;;;13.60;99.90;;;;;;6242296;23;20455;-92
2022/05/27 04:44:24;;;;;;;12.60;11.50;;;14.00;99.90;;;;;;6219910;23;20386;-92
2022/05/27 04:46:50;;;;;;;4.03;3.93;;;13.90;99.90;;;;;;6244552;23;20153;-93
2022/05/27 04:52:42;;;;;;;4.27;3.67;;;14.20;99.90;;;;;;6248344;23;20517;-93
2022/05/27 04:56:08;;;;;;;4.40;3.17;;;14.10;99.90;;;;;;6245281;23;20507;-90
2022/05/27 04:59:36;;;;;;;2.90;2.80;;;13.90;99.90;;;;;;6245277;23;20870;-90
2022/05/27 05:02:58;;;;;;;3.27;3.17;;;15.60;99.90;;;;;;6242748;23;20386;-91
2022/05/27 05:06:24;;;;;;;3.90;3.60;;;13.90;99.90;;;;;;6243561;23;20396;-90
2022/05/27 05:09:49;;;;;;;3.73;3.57;;;13.90;99.90;;;;;;6246676;23;20737;-91
2022/05/27 05:13:15;;;;;;;3.80;3.60;;;13.80;99.90;;;;;;6247238;23;20441;-92
2022/05/27 05:16:41;;;;;;;4.20;3.80;;;13.80;99.90;;;;;;6247976;23;20390;-91
2022/05/27 05:19:26;;;;;;;4.30;4.00;;;13.80;99.90;;;;;;6247284;23;20703;-91
2022/05/27 05:21:52;;;;;;;3.80;3.70;;;14.00;99.90;;;;;;6219658;23;20772;-90
2022/05/27 05:24:17;;;;;;;4.90;4.60;;;13.90;99.90;;;;;;6244494;23;20417;-90
2022/05/27 05:26:44;;;;;;;4.87;3.90;;;14.00;99.90;;;;;;6247095;23;20170;-91
2022/05/27 05:29:10;;;;;;;2.70;2.70;;;13.90;99.90;;;;;;6247676;22;20428;-91
2022/05/27 05:31:35;;;;;;;3.93;3.73;;;13.90;99.90;;;;;;6245521;23;20657;-92
2022/05/27 05:34:02;;;;;;;6.80;3.43;;;13.90;99.90;;;;;;6215912;23;20432;-90
2022/05/27 05:37:08;;;;;;;4.40;4.20;;;13.90;99.90;;;;;;6243710;23;20147;-92
2022/05/27 05:40:33;;;;;;;4.90;4.60;;;13.90;99.90;;;;;;6245208;23;20413;-90
2022/05/27 05:43:58;;;;;;;3.80;3.70;;;13.80;99.90;;;;;;6243849;23;20435;-92
2022/05/27 05:47:24;;;;;;;3.47;3.33;;;14.20;99.90;;;;;;6246131;23;20442;-92
2022/05/27 05:50:11;;;;;;;4.70;4.60;;;14.60;99.90;;;;;;6244280;23;20392;-89
2022/05/27 05:52:37;;;;;;;4.50;4.20;;;13.80;99.90;;;;;;6251253;23;20508;-91
2022/05/27 05:55:07;;;;;;;4.90;4.70;;;14.00;99.90;;;;;;6253933;23;20408;-93
2022/05/27 05:57:37;;;;;;;4.73;4.53;;;13.90;99.90;;;;;;6257232;23;20150;-91
2022/05/27 06:00:12;;;;;;;4.77;4.57;;;14.10;99.90;;;;;;6262013;23;20374;-92
2022/05/27 06:02:39;;;;;;;4.80;4.30;;;14.20;99.90;;;;;;6232429;23;20707;-93
2022/05/27 06:05:45;;;;;;;4.33;4.00;;;14.30;99.90;;;;;;6260184;23;20784;-91
2022/05/27 06:08:40;;;;;;;4.10;3.90;;;14.30;99.90;;;;;;6258947;23;20386;-92
2022/05/27 06:11:07;;;;;;;4.93;4.63;;;14.30;99.90;;;;;;6231478;23;20385;-92
2022/05/27 06:14:16;;;;;;;5.50;4.90;;;14.20;99.90;;;;;;6256256;23;20409;-91
2022/05/27 06:17:47;;;;;;;4.50;4.30;;;14.30;99.90;;;;;;6253661;23;20402;-90
2022/05/27 06:20:37;;;;;;;4.50;4.30;;;14.30;99.90;;;;;;6256217;23;20385;-90
2022/05/27 06:23:11;;;;;;;4.70;4.40;;;14.40;99.90;;;;;;6230203;23;20385;-92
2022/05/27 06:25:38;;;;;;;6.97;4.40;;;14.50;99.90;;;;;;6249807;23;20389;-92
2022/05/27 06:34:54;;;;;;;5.37;4.97;;;14.90;99.90;;;;;;6259133;23;20469;-91
2022/05/27 06:38:19;;;;;;;4.90;4.40;;;15.10;99.90;;;;;;6257168;23;20389;-92
2022/05/27 06:41:45;;;;;;;5.00;4.47;;;15.10;99.90;;;;;;6258312;23;20390;-92
2022/05/27 06:44:37;;;;;;;5.53;5.13;;;15.20;99.90;;;;;;6250859;23;20397;-93
2022/05/27 06:47:04;;;;;;;5.57;5.07;;;15.10;99.90;;;;;;6200521;22;20538;-90
2022/05/27 06:49:30;;;;;;;6.83;5.47;;;15.20;99.90;;;;;;6225176;23;20421;-91
2022/05/27 06:51:57;;;;;;;5.00;4.50;;;15.30;99.90;;;;;;6252771;23;20425;-91
2022/05/27 06:55:03;;;;;;;4.57;4.17;;;15.30;99.90;;;;;;6221052;23;20398;-91
2022/05/27 06:58:28;;;;;;;3.57;3.37;;;15.40;99.90;;;;;;6258139;23;20382;-91
2022/05/27 07:01:56;;;;;;;3.80;3.43;;;15.50;99.90;;;;;;6260340;23;20389;-90
2022/05/27 07:05:19;;;;;;;6.00;5.60;;;15.60;99.90;;;;;;6257397;23;20381;-91
2022/05/27 07:08:17;;;;;;;5.90;4.33;;;15.60;99.90;;;;;;6259584;23;20393;-92
2022/05/27 07:11:26;;;;;;;4.37;3.73;;;15.60;99.90;;;;;;6234540;23;20382;-92
2022/05/27 07:14:51;;;;;;;6.27;5.60;;;15.60;99.90;;;;;;6258376;23;20389;-91
2022/05/27 07:18:17;;;;;;;3.87;3.57;;;15.80;99.90;;;;;;6258100;23;20385;-91
2022/05/27 07:21:43;;;;;;;5.63;4.10;;;16.30;99.90;;;;;;6261268;23;20414;-91
2022/05/27 07:25:12;;;;;;;4.23;3.93;;;16.80;99.90;;;;;;6253649;23;20400;-90
2022/05/27 07:28:36;;;;;;;3.50;3.30;;;17.00;99.90;;;;;;6259867;23;20452;-91
2022/05/27 07:31:22;;;;;;;3.40;3.20;;;16.90;99.90;;;;;;6251148;23;20373;-89
2022/05/27 07:33:48;;;;;;;4.30;3.93;;;;;;;;;;6253828;23;20390;-91
2022/05/27 07:36:57;;;;;;;3.60;3.40;;;17.10;99.90;;;;;;6255828;23;20158;-91
2022/05/27 07:40:24;;;;;;;4.83;3.63;;;17.30;99.90;;;;;;6250589;23;20380;-93
2022/05/27 07:43:50;;;;;;;5.57;3.40;;;17.00;99.90;;;;;;6253728;23;20380;-91
2022/05/27 07:47:27;;;;;;;5.57;5.10;;;17.40;99.90;;;;;;6265964;23;21240;-90
2022/05/27 07:50:53;;;;;;;7.03;5.20;;;17.80;99.90;;;;;;6260952;23;20386;-92
2022/05/27 07:54:18;;;;;;;4.67;4.37;;;18.10;99.90;;;;;;6256445;23;20374;-93
2022/05/27 07:57:28;;;;;;;5.70;5.30;;;;;;;;;;6252174;23;20384;-92
2022/05/27 08:00:39;;;;;;;4.70;4.40;;;;;;;;;;6250678;23;20382;-92
2022/05/27 08:04:04;;;;;;;6.40;4.00;;;18.20;99.90;;;;;;6242691;23;20725;-91
2022/05/27 08:07:14;;;;;;;5.80;5.30;;;;;;;;;;6250114;23;20393;-92
2022/05/27 08:10:18;;;;;;;5.53;5.10;;;;;;;;;;6248604;23;20378;-88
2022/05/27 08:13:24;;;;;;;6.00;5.40;;;;;;;;;;6248737;23;20451;-91
2022/05/27 08:16:33;;;;;;;6.00;5.60;;;;;;;;;;6255256;23;20384;-91
2022/05/27 08:19:39;;;;;;;6.60;6.00;;;;;;;;;;6255893;23;20760;-90
2022/05/27 08:22:45;;;;;;;6.50;6.20;;;;;;;;;;6249115;23;20468;-92
2022/05/27 08:26:12;;;;;;;6.37;5.97;;;;;;;;;;6244994;23;20417;-93
2022/05/27 08:29:18;;;;;;;7.07;5.20;;;;;;;;;;6248722;22;20402;-92
2022/05/27 08:32:24;;;;;;;6.10;5.60;;;;;;;;;;6248785;23;20520;-89
2022/05/27 08:38:34;;;;;;;4.70;4.40;;;;;;;;;;6245730;23;20435;-93
2022/05/27 08:41:36;;;;;;;3.97;3.77;;;;;;;;;;6249284;23;20384;-92
2022/05/27 08:44:28;;;;;;;4.50;4.23;;;;;;;;;;6225524;23;20423;-92
2022/05/27 08:47:37;;;;;;;4.27;3.97;;;;;;;;;;6248076;23;20429;-89
2022/05/27 08:50:50;;;;;;;4.40;4.00;;;;;;;;;;6246982;23;20400;-93
2022/05/27 08:53:45;;;;;;;3.97;3.80;;;;;;;;;;6245752;23;20522;-91
2022/05/27 08:59:41;;;;;;;3.87;3.57;;;;;;;;;;6249638;23;20496;-91
2022/05/27 09:02:51;;;;;;;4.13;3.93;;;;;;;;;;6248132;23;21028;-88
2022/05/27 09:06:05;;;;;;;4.37;4.10;;;;;;;;;;6249046;23;20420;-92
2022/05/27 09:09:11;;;;;;;5.17;4.67;;;;;;;;;;6249887;23;20702;-92
2022/05/27 09:12:22;;;;;;;9.87;4.53;;;;;;;;;;6251022;23;20768;-92
2022/05/27 09:15:27;;;;;;;4.53;4.13;;;;;;;;;;6240471;23;20421;-92
2022/05/27 09:18:47;;;;;;;6.40;4.20;;;;;;;;;;6249224;23;20374;-92
2022/05/27 09:21:39;;;;;;;2.90;2.60;;;;;;;;;;6248237;23;20393;-93
2022/05/27 09:24:09;;;;;;;3.40;3.20;;;;;;;;;;6245962;23;20378;-92
2022/05/27 09:27:01;;;;;;;4.00;2.90;;;;;;;;;;6249408;23;20717;-91
2022/05/27 09:30:32;;;;;;;2.53;2.53;;;24.60;99.90;;;;;;6254744;22;20398;-93
2022/05/27 09:34:08;;;;;;;4.50;3.30;;;25.30;99.90;;;;;;6247497;23;20456;-94
2022/05/27 09:37:26;;;;;;;4.30;3.67;;;25.70;98.10;;;;;;6242162;23;20884;-93
2022/05/27 09:40:58;;;;;;;3.10;2.90;;;25.30;96.30;;;;;;6247022;23;20389;-92
2022/05/27 09:44:26;;;;;;;5.20;3.13;;;25.30;92.20;;;;;;6244707;23;20416;-93
2022/05/27 09:47:52;;;;;;;3.10;2.93;;;25.60;93.20;;;;;;6248451;23;21167;-93
2022/05/27 09:51:06;;;;;;;3.43;2.80;;;;;;;;;;6246783;23;20401;-94
2022/05/27 09:53:52;;;;;;;3.73;3.33;;;;;;;;;;6247761;23;20472;-91
2022/05/27 09:56:33;;;;;;;3.13;2.90;;;;;;;;;;6223011;23;20404;-93
2022/05/27 09:59:19;;;;;;;3.60;3.13;;;;;;;;;;6225284;23;20396;-93
2022/05/27 10:02:13;;;;;;;3.07;2.87;;;;;;;;;;6222742;23;20397;-93
2022/05/27 10:05:37;;;;;;;3.23;2.80;;;;;;;;;;6251892;23;20499;-95
2022/05/27 10:08:53;;;;;;;7.30;4.30;;;;;;;;;;6254367;23;20399;-91
2022/05/27 10:12:13;;;;;;;7.00;3.30;;;;;;;;;;6254186;23;20400;-92
2022/05/27 10:15:25;;;;;;;3.30;3.00;;;;;;;;;;6254783;23;20382;-90
2022/05/27 10:18:59;;;;;;;3.90;3.20;;;23.40;90.70;;;;;;6251957;23;20393;-88
2022/05/27 10:21:51;;;;;;;2.63;2.43;;;24.80;91.20;;;;;;6251550;23;20473;-91
2022/05/27 10:24:40;;;;;;;4.83;2.70;;;25.70;88.60;;;;;;6249628;23;20374;-92
2022/05/27 10:27:55;;;;;;;5.97;2.93;;;26.30;85.60;;;;;;6249311;23;20806;-93
2022/05/27 10:31:24;;;;;;;6.53;3.17;;;25.80;81.70;;;;;;6254971;22;20437;-93
2022/05/27 10:34:48;;;;;;;3.77;2.93;;;25.80;79.80;;;;;;6247113;23;20480;-92
2022/05/27 10:37:52;;;;;;;5.30;3.30;;;25.80;81.20;;;;;;6244380;23;20396;-91
2022/05/27 10:41:16;;;;;;;4.13;3.10;;;25.20;78.20;;;;;;6247695;23;20389;-90
2022/05/27 10:44:30;;;;;;;2.97;2.80;;;25.80;75.30;;;;;;6248985;23;20413;-90
2022/05/27 10:46:58;;;;;;;6.10;3.50;;;26.50;77.90;;;;;;6247844;23;20413;-92
2022/05/27 10:49:24;;;;;;;6.60;4.10;;;26.10;79.40;;;;;;6246673;23;20956;-89
2022/05/27 10:52:11;;;;;;;4.30;2.77;;;27.20;73.50;;;;;;6213444;23;20389;-89
2022/05/27 10:54:51;;;;;;;5.63;3.20;;;27.20;65.10;;;;;;6246932;23;20139;-91
2022/05/27 11:04:59;;;;;;;2.93;2.67;;;27.90;67.00;;;;;;6259103;23;20881;-92
2022/05/27 11:08:18;;;;;;;3.27;2.80;;;28.90;65.10;;;;;;6253831;23;20414;-90
2022/05/27 11:10:53;;;;;;;4.17;3.10;;;29.20;59.80;;;;;;6256607;23;20385;-92
2022/05/27 11:16:51;;;;;;;4.53;3.50;;;28.40;59.60;;;;;;6253801;23;20365;-88
2022/05/27 11:19:46;;;;;;;3.17;2.80;;;28.70;58.00;;;;;;6248435;23;20923;-92
2022/05/27 11:22:49;;;;;;;3.13;2.90;;;29.30;58.10;;;;;;6224134;23;20753;-91
2022/05/27 11:26:06;;;;;;;4.33;2.60;;;28.50;58.20;;;;;;6224470;23;20389;-92
2022/05/27 11:29:33;;;;;;;3.40;3.20;;;29.00;57.50;;;;;;6252192;22;20518;-93
2022/05/27 11:32:58;;;;;;;4.43;3.00;;;27.30;58.60;;;;;;6250002;23;20424;-92
2022/05/27 11:36:09;;;;;;;3.43;3.17;;;;;;;;;;6251138;23;20381;-92
2022/05/27 11:38:53;;;;;;;2.77;2.57;;;;;;;;;;6257549;23;20394;-93
2022/05/27 11:41:48;;;;;;;4.80;2.90;;;;;;;;;;6235005;23;20382;-92
2022/05/27 11:44:40;;;;;;;4.70;3.50;;;;;;;;;;6260434;23;20409;-93
2022/05/27 11:47:26;;;;;;;4.10;3.47;;;;;;;;;;6260220;23;20425;-93
2022/05/27 11:50:30;;;;;;;6.47;3.23;;;;;;;;;;6254609;23;20385;-93
2022/05/27 11:53:19;;;;;;;2.80;2.60;;;;;;;;;;6258196;23;20432;-93
2022/05/27 11:56:24;;;;;;;4.43;3.10;;;;;;;;;;6258050;23;20445;-92
2022/05/27 11:59:36;;;;;;;9.63;3.50;;;;;;;;;;6256626;23;20416;-95
2022/05/27 12:02:54;;;;;;;3.10;3.00;;;;;;;;;;6261097;23;20404;-93
2022/05/27 12:05:47;;;;;;;3.07;2.87;;;;;;;;;;6234973;23;20390;-92
2022/05/27 12:08:56;;;;;;;2.80;2.70;;;;;;;;;;6260209;23;20378;-93
2022/05/27 12:11:47;;;;;;;4.43;2.50;;;;;;;;;;6260245;23;20385;-91
2022/05/27 12:14:38;;;;;;;4.57;3.40;;;;;;;;;;6232385;23;20398;-94
2022/05/27 12:17:40;;;;;;;5.83;3.00;;;;;;;;;;6259679;23;21055;-93
2022/05/27 12:20:49;;;;;;;4.77;2.70;;;;;;;;;;6260747;23;20392;-92
2022/05/27 12:23:55;;;;;;;4.33;2.80;;;;;;;;;;6258291;23;20465;-91
2022/05/27 12:27:01;;;;;;;3.17;2.57;;;;;;;;;;6257939;23;20378;-91
2022/05/27 12:30:07;;;;;;;3.03;2.90;;;;;;;;;;6263008;22;20408;-92
2022/05/27 12:33:13;;;;;;;2.77;2.43;;;;;;;;;;6260417;23;20456;-92
2022/05/27 12:36:25;;;;;;;3.23;2.97;;;;;;;;;;6257609;23;20379;-91
2022/05/27 12:39:21;;;;;;;2.20;2.10;;;;;;;;;;6260512;23;20389;-91
2022/05/27 12:41:48;;;;;;;3.00;2.80;;;;;;;;;;6260817;23;20361;-91
2022/05/27 12:44:16;;;;;;;5.97;2.25;;;;;;;;;;6102323;23;1239892;-88
2022/05/27 12:46:49;;;;;;;4.00;3.43;;;;;;;;;;6183229;22;20237;-91
2022/05/27 12:49:37;;;;;;;;;;;;;;;;;;;;;
2022/05/27 12:52:08;;;;;;;2.43;1.97;;;;;;;;;;6287636;22;20420;-88
2022/05/27 12:54:46;;;;;;;2.70;2.50;;;;;;;;;;6263306;22;20456;-90
2022/05/27 13:03:34;;;;;;;3.70;2.60;;;;;;;;;;6293311;22;20407;-92
2022/05/27 13:06:51;;;;;;;6.47;5.20;;;;;;;;;;6266579;22;20400;-94
2022/05/27 13:09:59;;;;;;;8.93;3.07;;;;;;;;;;6292840;22;20396;-91
2022/05/27 13:12:48;;;;;;;3.83;2.80;;;;;;;;;;6266097;22;20439;-93
2022/05/27 13:15:54;;;;;;;2.57;2.43;;;;;;;;;;6286707;22;20386;-91
2022/05/27 13:18:49;;;;;;;3.03;2.63;;;;;;;;;;6287011;22;20380;-94
2022/05/27 13:21:27;;;;;;;4.07;2.43;;;;;;;;;;6259848;22;20388;-96
2022/05/27 13:24:13;;;;;;;5.17;3.00;;;;;;;;;;6287278;22;20384;-94
2022/05/27 13:27:35;;;;;;;4.50;3.47;;;;;;;;;;6279229;22;20445;-92
2022/05/27 13:30:41;;;;;;;2.87;2.67;;;;;;;;;;6209514;22;20392;-93
2022/05/27 13:33:50;;;;;;;4.83;3.27;;;;;;;;;;6290241;22;20526;-91
2022/05/27 13:36:56;;;;;;;3.30;2.83;;;;;;;;;;6287052;22;20402;-92
2022/05/27 13:39:24;;;;;;;4.20;2.90;;;;;;;;;;6260920;22;20495;-94
2022/05/27 13:41:52;;;;;;;7.10;3.37;;;;;;;;;;6258498;22;20407;-92
2022/05/27 13:44:23;;;;;;;6.37;3.83;;;25.00;49.70;;;;;;6261032;22;20445;-95
2022/05/27 13:46:56;;;;;;;7.60;2.93;;;24.10;44.90;;;;;;6260361;22;20764;-94
2022/05/27 13:50:01;;;;;;;7.63;2.90;;;25.70;42.40;;;;;;6289477;22;20363;-94
2022/05/27 13:53:45;;;;;;;3.57;3.33;;;26.30;39.60;;;;;;6278621;22;20427;-93
2022/05/27 14:03:29;;;;;;;5.33;2.70;;;24.50;39.80;;;;;;6246517;22;20449;-94
2022/05/27 14:07:20;;;;;;;9.93;3.30;;;23.50;39.00;;;;;;6241510;23;20485;-95
2022/05/27 14:10:48;;;;;;;3.80;3.07;;;23.20;38.70;;;;;;6258729;23;20511;-90
2022/05/27 14:14:28;;;;;;;7.07;2.80;;;22.90;38.10;;;;;;6252716;23;20447;-94
2022/05/27 14:17:23;;;;;;;3.40;2.67;;;22.30;64.20;;;;;;6235409;22;20880;-92
2022/05/27 14:20:10;;;;;;;4.30;2.37;;;22.20;50.60;;;;;;6258345;23;20391;-91
2022/05/27 14:22:57;;;;;;;3.37;2.10;;;22.10;48.30;;;;;;6205825;23;20389;-93
2022/05/27 14:25:44;;;;;;;7.93;2.70;;;22.50;49.70;;;;;;6256337;23;20402;-94
2022/05/27 14:31:59;;;;;;;5.80;2.00;;;24.40;46.10;;;;;;6138155;23;20468;-93
2022/05/27 14:35:07;;;;;;;2.77;2.20;;;24.50;48.70;;;;;;6202154;23;20387;-95
2022/05/27 14:38:22;;;;;;;4.77;2.43;;;24.40;47.70;;;;;;6225768;23;20383;-93
2022/05/27 14:40:52;;;;;;;5.30;2.27;;;25.10;48.00;;;;;;6201623;23;20394;-91
2022/05/27 14:43:34;;;;;;;2.93;2.63;;;25.40;48.10;;;;;;6200806;23;20402;-93
2022/05/27 14:49:50;;;;;;;6.70;2.77;;;23.40;47.40;;;;;;6221987;23;20397;-91
2022/05/27 14:53:07;;;;;;;2.40;2.20;;;23.10;48.00;;;;;;6217853;23;20500;-90
2022/05/27 14:56:36;;;;;;;3.13;2.80;;;23.40;48.60;;;;;;6165733;23;20395;-91
2022/05/27 14:59:35;;;;;;;2.70;2.53;;;22.50;50.90;;;;;;6164487;23;20404;-91
2022/05/27 15:02:57;;;;;;;3.07;2.27;;;22.10;50.60;;;;;;6163157;23;20388;-93
2022/05/27 15:05:23;;;;;;;7.27;3.40;;;21.90;48.70;;;;;;6127767;23;20393;-92
2022/05/27 15:08:22;;;;;;;6.20;2.37;;;22.00;50.90;;;;;;6191363;23;20528;-93
2022/05/27 15:11:25;;;;;;;4.50;2.53;;;21.80;50.60;;;;;;6239507;22;20525;-92
2022/05/27 15:14:42;;;;;;;5.70;2.60;;;21.60;48.50;;;;;;6259826;23;20551;-94
2022/05/27 15:21:03;;;;;;;3.43;3.13;;;20.90;48.80;;;;;;6248410;22;20460;-92
2022/05/27 15:48:28;;;;;;;3.60;2.53;;;19.90;48.80;;;;;;6158967;22;20463;-92
2022/05/27 15:51:35;;;;;;;4.80;1.83;;;19.50;49.20;;;;;;6140046;23;20451;-94
2022/05/27 15:55:45;;;;;;;4.43;1.90;;;19.30;50.70;;;;;;6145272;23;20464;-92
2022/05/27 15:58:31;;;;;;;6.93;2.63;;;19.10;50.50;;;;;;6175787;23;20765;-93
2022/05/27 16:02:00;;;;;;;3.07;1.53;;;19.10;50.70;;;;;;6167301;23;20387;-91
2022/05/27 16:05:25;;;;;;;1.93;1.80;;;18.90;49.10;;;;;;6165072;23;20413;-94
2022/05/27 16:17:53;;;;;;;8.17;3.00;;;19.00;51.60;;;;;;6225875;23;20483;-91
2022/05/27 16:20:46;;;;;;;6.70;2.63;;;18.80;51.40;;;;;;6240182;22;20445;-90
2022/05/27 16:23:14;;;;;;;3.13;1.70;;;19.20;50.60;;;;;;6260836;23;20381;-88
2022/05/27 16:26:20;;;;;;;7.60;2.20;;;19.20;50.40;;;;;;6226932;23;20394;-90
2022/05/27 16:29:50;;;;;;;4.03;1.97;;;19.70;53.30;;;;;;6255000;22;20512;-90
2022/05/27 16:33:13;;;;;;;1.73;1.63;;;18.90;51.40;;;;;;6249926;23;20739;-90
2022/05/27 16:36:38;;;;;;;8.67;3.00;;;18.90;51.60;;;;;;6259443;23;20427;-90
2022/05/27 16:39:23;;;;;;;5.13;2.73;;;18.90;52.40;;;;;;6265447;23;21057;-90
2022/05/27 16:41:52;;;;;;;4.60;2.20;;;18.60;51.30;;;;;;6255851;23;20410;-90
2022/05/27 16:44:17;;;;;;;7.27;2.40;;;18.60;51.50;;;;;;6229335;23;20162;-89
2022/05/27 16:46:49;;;;;;;3.20;2.00;;;18.30;52.30;;;;;;6229922;23;20444;-90
2022/05/27 16:49:15;;;;;;;2.33;2.10;;;;;;;;;;6229569;23;20205;-91
2022/05/27 16:51:41;;;;;;;3.63;2.20;;;18.10;51.10;;;;;;6226850;23;20392;-91
2022/05/27 16:55:11;;;;;;;2.27;2.10;;;18.10;53.00;;;;;;6222410;23;20434;-92
2022/05/27 16:58:37;;;;;;;5.73;2.90;;;17.90;51.30;;;;;;6254926;23;20427;-92
2022/05/27 17:02:08;;;;;;;3.07;2.00;;;17.90;53.20;;;;;;6252903;23;20417;-93
2022/05/27 17:05:34;;;;;;;4.90;2.43;;;17.50;56.00;;;;;;6251481;23;20494;-93
2022/05/27 17:09:02;;;;;;;5.83;2.37;;;17.40;56.40;;;;;;6253405;23;20393;-91
2022/05/27 17:12:29;;;;;;;5.50;2.63;;;17.60;56.20;;;;;;6252015;23;21155;-88
2022/05/27 17:15:57;;;;;;;3.70;1.80;;;17.80;58.30;;;;;;6245106;23;20690;-91
2022/05/27 17:19:20;;;;;;;5.50;2.43;;;17.80;56.40;;;;;;6213375;23;20414;-91
2022/05/27 17:26:21;;;;;;;2.73;1.60;;;17.40;53.70;;;;;;6208618;23;20394;-93